Time;durP1;ratioP1;P1;durP2;ratioP2;P2;SDS_P1;SDS_P2;PMS_P1;PMS_P2;Temp;Humidity;BMP_temperature;BMP_pressure;BME280_temperature;BME280_humidity;BME280_pressure;Samples;Min_cycle;Max_cycle;Signal;HPM_P1;HPM_P2
2023/03/20 00:01:14;;;;;;;;;;;;;;;5.43;100.00;92686.00;4957092;29;19946;-78
2023/03/20 00:03:40;;;;;;;;;;;;;;;5.37;100.00;92681.78;4955729;29;20444;-78
2023/03/20 00:06:11;;;;;;;;;;;;;;;5.31;100.00;92683.53;4969708;28;19949;-78
2023/03/20 00:08:38;;;;;;;;;;;;;;;5.28;100.00;92684.06;4975766;28;19914;-78
2023/03/20 00:11:04;;;;;;;;;;;;;;;5.21;100.00;92678.28;4973631;28;20009;-78
2023/03/20 00:13:29;;;;;;;;;;;;;;;5.18;100.00;92679.56;4964371;28;20013;-78
2023/03/20 00:15:55;;;;;;;;;;;;;;;5.16;100.00;92679.03;4955887;28;19919;-79
2023/03/20 00:18:21;;;;;;;;;;;;;;;5.14;100.00;92673.31;4955542;29;19926;-78
2023/03/20 00:20:50;;;;;;;;;;;;;;;5.13;100.00;92679.50;4966426;28;19941;-78
2023/03/20 00:23:16;;;;;;;;;;;;;;;5.10;100.00;92674.81;4977198;28;20328;-78
2023/03/20 00:25:45;;;;;;;;;;;;;;;5.09;100.00;92683.66;4968977;28;19918;-78
2023/03/20 00:28:36;;;;;;;;;;;;;;;5.06;100.00;92678.94;4968731;28;20256;-78
2023/03/20 00:31:01;;;;;;;;;;;;;;;5.02;100.00;92672.69;4978511;28;19918;-78
2023/03/20 00:33:27;;;;;;;;;;;;;;;5.02;100.00;92675.28;4993705;28;19917;-79
2023/03/20 00:35:52;;;;;;;;;;;;;;;4.99;100.00;92671.38;4977947;28;19918;-79
2023/03/20 00:38:18;;;;;;;;;;;;;;;4.94;100.00;92671.31;4979792;28;19925;-79
2023/03/20 00:40:44;;;;;;;;;;;;;;;4.90;100.00;92656.50;4979095;28;19925;-79
2023/03/20 00:43:12;;;;;;;;;;;;;;;4.88;100.00;92668.94;4978423;28;19969;-79
2023/03/20 00:45:38;;;;;;;;;;;;;;;4.85;100.00;92669.44;4978501;28;20427;-79
2023/03/20 00:48:11;;;;;;;;;;;;;;;4.84;100.00;92676.44;4965509;28;20407;-79
2023/03/20 00:50:36;;;;;;;;;;;;;;;4.79;100.00;92677.16;4964372;28;20369;-79
2023/03/20 00:53:05;;;;;;;;;;;;;;;4.78;100.00;92674.81;4943635;29;19921;-79
2023/03/20 00:55:31;;;;;;;;;;;;;;;4.75;100.00;92673.50;4959615;29;20284;-79
2023/03/20 00:57:59;;;;;;;;;;;;;;;4.73;100.00;92672.97;4965902;28;20012;-79
2023/03/20 01:00:29;;;;;;;;;;;;;;;4.71;100.00;92675.00;4978465;28;19920;-79
2023/03/20 01:02:56;;;;;;;;;;;;;;;4.69;100.00;92677.06;4978375;28;19964;-79
2023/03/20 01:05:23;;;;;;;;;;;;;;;4.68;100.00;92672.13;4979679;28;19914;-79
2023/03/20 01:07:52;;;;;;;;;;;;;;;4.65;100.00;92670.03;4967839;28;19914;-79
2023/03/20 01:10:18;;;;;;;;;;;;;;;4.63;100.00;92670.25;4976588;28;19921;-79
2023/03/20 01:12:45;;;;;;;;;;;;;;;4.60;100.00;92662.97;4977820;28;19914;-79
2023/03/20 01:15:17;;;;;;;;;;;;;;;4.58;100.00;92665.03;4978402;28;19917;-79
2023/03/20 01:17:42;;;;;;;;;;;;;;;4.57;100.00;92666.84;4975868;28;19914;-79
2023/03/20 01:20:25;;;;;;;;;;;;;;;4.57;100.00;92664.25;4976181;28;19928;-79
2023/03/20 01:22:51;;;;;;;;;;;;;;;4.54;100.00;92667.31;4977782;28;19925;-79
2023/03/20 01:25:17;;;;;;;;;;;;;;;4.53;100.00;92667.59;4976464;28;19914;-79
2023/03/20 01:27:45;;;;;;;;;;;;;;;4.54;100.00;92656.94;4976297;28;19988;-79
2023/03/20 01:30:15;;;;;;;;;;;;;;;4.52;100.00;92658.22;4971323;28;19922;-79
2023/03/20 01:32:42;;;;;;;;;;;;;;;4.50;100.00;92661.06;4957666;28;19945;-79
2023/03/20 01:35:11;;;;;;;;;;;;;;;4.46;100.00;92660.00;4958176;29;19921;-79
2023/03/20 01:37:36;;;;;;;;;;;;;;;4.44;100.00;92656.84;4974538;28;19914;-79
2023/03/20 01:40:03;;;;;;;;;;;;;;;4.43;100.00;92649.31;4960584;28;20304;-79
2023/03/20 01:42:32;;;;;;;;;;;;;;;4.43;100.00;92654.50;4957530;28;20412;-79
2023/03/20 01:44:57;;;;;;;;;;;;;;;4.38;100.00;92648.22;4991328;28;19918;-79
2023/03/20 01:47:27;;;;;;;;;;;;;;;4.36;100.00;92646.91;4976159;28;19918;-79
2023/03/20 01:50:15;;;;;;;;;;;;;;;4.31;100.00;92645.06;4973165;28;20017;-79
2023/03/20 01:52:41;;;;;;;;;;;;;;;4.27;100.00;92636.19;4976301;28;19914;-79
2023/03/20 01:55:07;;;;;;;;;;;;;;;4.24;100.00;92631.50;4977192;28;19945;-79
2023/03/20 01:57:33;;;;;;;;;;;;;;;4.20;100.00;92632.25;4973550;28;20013;-79
2023/03/20 02:00:09;;;;;;;;;;;;;;;4.18;100.00;92637.66;4975229;28;19937;-79
2023/03/20 02:02:45;;;;;;;;;;;;;;;4.12;100.00;92629.06;4975652;28;19918;-79
2023/03/20 02:05:19;;;;;;;;;;;;;;;4.10;100.00;92623.34;4976214;28;19918;-79
2023/03/20 02:07:48;;;;;;;;;;;;;;;4.09;100.00;92620.97;4976275;28;19960;-79
2023/03/20 02:10:15;;;;;;;;;;;;;;;4.08;100.00;92619.44;4979220;28;19914;-79
2023/03/20 02:13:01;;;;;;;;;;;;;;;4.10;100.00;92618.16;4974723;28;19969;-79
2023/03/20 02:15:52;;;;;;;;;;;;;;;4.09;100.00;92618.38;4973617;28;19920;-79
2023/03/20 02:18:29;;;;;;;;;;;;;;;4.02;100.00;92620.38;4976323;28;19918;-78
2023/03/20 02:21:09;;;;;;;;;;;;;;;3.98;100.00;92617.47;4975513;28;19917;-79
2023/03/20 02:23:53;;;;;;;;;;;;;;;3.94;100.00;92614.59;4975950;28;19924;-79
2023/03/20 02:26:38;;;;;;;;;;;;;;;3.91;100.00;92617.66;4977185;28;19980;-79
2023/03/20 02:29:27;;;;;;;;;;;;;;;3.89;100.00;92606.75;4972635;28;19918;-79
2023/03/20 02:32:14;;;;;;;;;;;;;;;3.92;100.00;92614.06;4979594;28;19922;-79
2023/03/20 02:34:52;;;;;;;;;;;;;;;3.92;100.00;92616.66;4957755;29;19918;-79
2023/03/20 02:37:36;;;;;;;;;;;;;;;3.90;100.00;92618.69;4958752;28;20424;-79
2023/03/20 02:40:03;;;;;;;;;;;;;;;3.88;100.00;92615.56;4973664;28;20005;-79
2023/03/20 02:42:30;;;;;;;;;;;;;;;3.87;100.00;92611.44;4941534;28;19923;-79
2023/03/20 02:44:56;;;;;;;;;;;;;;;3.82;100.00;92608.75;4989956;28;19957;-79
2023/03/20 02:47:21;;;;;;;;;;;;;;;3.79;100.00;92600.69;4976300;28;19914;-79
2023/03/20 02:50:11;;;;;;;;;;;;;;;3.78;100.00;92604.31;4969274;28;20312;-79
2023/03/20 02:52:43;;;;;;;;;;;;;;;3.77;100.00;92607.94;4966778;28;19925;-79
2023/03/20 02:55:17;;;;;;;;;;;;;;;3.71;100.00;92601.88;4992656;28;19914;-79
2023/03/20 02:57:52;;;;;;;;;;;;;;;3.67;100.00;92601.59;4962600;28;19914;-79
2023/03/20 03:00:25;;;;;;;;;;;;;;;3.69;100.00;92606.53;4960884;28;19918;-79
2023/03/20 03:02:57;;;;;;;;;;;;;;;3.66;100.00;92596.66;4975947;28;19922;-79
2023/03/20 03:05:26;;;;;;;;;;;;;;;3.61;100.00;92596.59;4972131;28;20012;-79
2023/03/20 03:07:55;;;;;;;;;;;;;;;3.54;100.00;92600.16;4977330;28;19921;-79
2023/03/20 03:10:27;;;;;;;;;;;;;;;3.48;100.00;92608.84;4973399;28;20292;-79
2023/03/20 03:12:55;;;;;;;;;;;;;;;3.49;100.00;92607.03;4957473;29;19921;-79
2023/03/20 03:15:29;;;;;;;;;;;;;;;3.44;100.00;92602.59;4957396;28;19924;-79
2023/03/20 03:17:57;;;;;;;;;;;;;;;3.42;100.00;92596.09;4965635;28;20364;-79
2023/03/20 03:20:28;;;;;;;;;;;;;;;3.38;100.00;92605.34;4976597;28;20175;-79
2023/03/20 03:22:55;;;;;;;;;;;;;;;3.34;100.00;92605.06;4975867;28;19989;-79
2023/03/20 03:25:23;;;;;;;;;;;;;;;3.36;100.00;92615.94;4975516;28;19953;-79
2023/03/20 03:27:53;;;;;;;;;;;;;;;3.34;100.00;92610.22;4975601;28;19919;-78
2023/03/20 03:30:26;;;;;;;;;;;;;;;3.35;100.00;92609.19;4976295;28;20218;-79
2023/03/20 03:33:14;;;;;;;;;;;;;;;3.34;100.00;92613.59;4976198;28;19913;-79
2023/03/20 03:35:40;;;;;;;;;;;;;;;3.33;100.00;92613.81;4974915;28;19924;-79
2023/03/20 03:38:06;;;;;;;;;;;;;;;3.34;100.00;92618.00;4975099;28;19925;-79
2023/03/20 03:40:48;;;;;;;;;;;;;;;3.34;100.00;92616.19;4972116;28;19918;-79
2023/03/20 03:43:30;;;;;;;;;;;;;;;3.33;100.00;92614.63;4941145;29;19918;-79
2023/03/20 03:46:03;;;;;;;;;;;;;;;3.31;100.00;92614.09;4960770;28;19914;-79
2023/03/20 03:48:35;;;;;;;;;;;;;;;3.29;100.00;92618.72;4952615;29;19920;-79
2023/03/20 03:51:06;;;;;;;;;;;;;;;3.29;100.00;92623.88;4968165;28;19915;-79
2023/03/20 03:53:36;;;;;;;;;;;;;;;3.28;100.00;92616.34;4991300;28;19914;-79
2023/03/20 03:56:05;;;;;;;;;;;;;;;3.27;100.00;92622.56;4971992;28;20006;-79
2023/03/20 03:58:36;;;;;;;;;;;;;;;3.28;100.00;92616.34;4967997;28;20155;-79
2023/03/20 04:01:03;;;;;;;;;;;;;;;3.27;100.00;92617.38;4970343;28;19960;-79
2023/03/20 04:03:32;;;;;;;;;;;;;;;3.27;100.00;92622.56;4970705;28;20368;-79
2023/03/20 04:05:59;;;;;;;;;;;;;;;3.26;100.00;92626.16;4985306;28;19922;-79
2023/03/20 04:08:25;;;;;;;;;;;;;;;3.25;100.00;92622.78;4970940;28;20432;-79
2023/03/20 04:10:51;;;;;;;;;;;;;;;3.26;100.00;92626.16;4983964;28;19922;-79
2023/03/20 04:13:16;;;;;;;;;;;;;;;3.22;100.00;92631.03;4971400;28;19920;-78
2023/03/20 04:15:42;;;;;;;;;;;;;;;3.19;100.00;92626.31;4978594;28;19941;-78
2023/03/20 04:18:18;;;;;;;;;;;;;;;3.21;100.00;92631.25;4973914;28;19968;-77
2023/03/20 04:20:46;;;;;;;;;;;;;;;3.19;100.00;92628.91;4976832;28;19926;-78
2023/03/20 04:23:11;;;;;;;;;;;;;;;3.19;100.00;92635.88;4971780;28;19922;-78
2023/03/20 04:25:37;;;;;;;;;;;;;;;3.16;100.00;92631.97;4975705;28;20288;-78
2023/03/20 04:28:03;;;;;;;;;;;;;;;3.12;100.00;92636.81;4973903;28;19914;-78
2023/03/20 04:30:46;;;;;;;;;;;;;;;3.10;100.00;92635.50;4962190;28;20353;-79
2023/03/20 04:33:32;;;;;;;;;;;;;;;3.07;100.00;92633.38;4949226;28;19918;-79
2023/03/20 04:36:02;;;;;;;;;;;;;;;3.05;100.00;92632.84;4959945;29;19997;-79
2023/03/20 04:38:28;;;;;;;;;;;;;;;3.03;100.00;92633.06;4959411;28;19950;-79
2023/03/20 04:40:56;;;;;;;;;;;;;;;3.01;100.00;92632.50;4979568;28;19941;-79
2023/03/20 04:43:22;;;;;;;;;;;;;;;3.01;100.00;92629.16;4975767;28;19923;-79
2023/03/20 04:45:47;;;;;;;;;;;;;;;3.00;100.00;92627.59;4959671;29;20384;-79
2023/03/20 04:48:13;;;;;;;;;;;;;;;2.99;100.00;92634.56;4963375;28;19937;-79
2023/03/20 04:50:39;;;;;;;;;;;;;;;2.99;100.00;92639.72;4974821;28;19925;-79
2023/03/20 04:53:04;;;;;;;;;;;;;;;2.99;100.00;92641.53;4977583;28;19918;-78
2023/03/20 04:55:30;;;;;;;;;;;;;;;2.98;100.00;92632.22;4976890;28;19922;-78
2023/03/20 04:57:56;;;;;;;;;;;;;;;2.97;100.00;92636.59;4977827;28;19921;-78
2023/03/20 05:00:22;;;;;;;;;;;;;;;2.97;100.00;92633.22;4975032;28;19918;-78
2023/03/20 05:02:49;;;;;;;;;;;;;;;2.97;100.00;92633.22;4991784;28;19985;-79
2023/03/20 05:05:15;;;;;;;;;;;;;;;2.95;100.00;92638.66;4970475;28;19957;-79
2023/03/20 05:07:42;;;;;;;;;;;;;;;2.93;100.00;92638.09;4957683;28;19925;-79
2023/03/20 05:10:13;;;;;;;;;;;;;;;2.93;100.00;92638.09;4960013;28;19915;-78
2023/03/20 05:12:45;;;;;;;;;;;;;;;2.94;100.00;92633.72;4968610;28;19929;-78
2023/03/20 05:15:31;;;;;;;;;;;;;;;2.94;100.00;92634.47;4956835;28;20019;-78
2023/03/20 05:18:20;;;;;;;;;;;;;;;2.97;100.00;92635.81;4976428;28;19925;-78
2023/03/20 05:21:06;;;;;;;;;;;;;;;2.95;100.00;92638.66;4957656;28;19919;-79
2023/03/20 05:23:58;;;;;;;;;;;;;;;2.93;100.00;92638.09;4970570;28;19929;-79
2023/03/20 05:26:40;;;;;;;;;;;;;;;2.92;100.00;92644.28;4978373;28;19978;-79
2023/03/20 05:29:20;;;;;;;;;;;;;;;2.88;100.00;92638.81;4978100;28;19921;-79
2023/03/20 05:32:05;;;;;;;;;;;;;;;2.85;100.00;92641.06;4972384;28;19929;-79
2023/03/20 05:34:50;;;;;;;;;;;;;;;2.86;100.00;92642.63;4967979;28;19928;-79
2023/03/20 05:37:25;;;;;;;;;;;;;;;2.87;100.00;92637.22;4971106;28;19946;-79
2023/03/20 05:40:22;;;;;;;;;;;;;;;2.90;100.00;92635.97;4977877;28;19924;-79
2023/03/20 05:43:02;;;;;;;;;;;;;;;2.93;100.00;92638.09;4975123;28;19965;-79
2023/03/20 05:45:47;;;;;;;;;;;;;;;2.97;100.00;92636.59;4974161;28;20381;-78
2023/03/20 05:48:24;;;;;;;;;;;;;;;3.19;100.00;92651.41;4989593;28;19926;-80
2023/03/20 05:51:09;;;;;;;;;;;;;;;3.68;100.00;92654.94;4975762;28;20332;-79
2023/03/20 05:54:13;;;;;;;;;;;;;;;4.33;100.00;92653.38;4928791;29;19936;-78
2023/03/20 05:57:11;;;;;;;;;;;;;;;4.98;100.00;92653.47;4898549;29;19925;-80
2023/03/20 05:59:57;;;;;;;;;;;;;;;5.52;100.00;92668.13;4953473;28;19993;-79
2023/03/20 06:02:43;;;;;;;;;;;;;;;6.13;100.00;92665.09;4966839;28;19926;-81
2023/03/20 06:05:32;;;;;;;;;;;;;;;6.76;100.00;92667.63;4962985;28;19928;-83
2023/03/20 06:07:59;;;;;;;;;;;;;;;7.21;100.00;92669.50;4987245;28;19984;-82
2023/03/20 06:10:26;;;;;;;;;;;;;;;7.70;100.00;92661.13;4956480;28;19918;-82
2023/03/20 06:12:52;;;;;;;;;;;;;;;8.28;100.00;92667.72;4990320;28;21023;-83
2023/03/20 06:15:22;;;;;;;;;;;;;;;8.77;100.00;92664.41;4963923;28;19925;-82
2023/03/20 06:17:58;;;;;;;;;;;;;;;9.18;98.21;92670.13;4973522;28;19918;-80
2023/03/20 06:20:24;;;;;;;;;;;;;;;9.86;98.47;92675.56;4967941;28;20012;-81
2023/03/20 06:22:50;;;;;;;;;;;;;;;10.29;92.04;92675.69;4973731;28;19977;-81
2023/03/20 06:25:17;;;;;;;;;;;;;;;10.66;88.29;92680.22;4969123;28;19918;-80
2023/03/20 06:27:44;;;;;;;;;;;;;;;11.09;87.36;92671.53;4971617;28;19920;-80
2023/03/20 06:30:10;;;;;;;;;;;;;;;11.43;85.28;92672.06;4970160;28;19918;-80
2023/03/20 06:32:36;;;;;;;;;;;;;;;11.80;81.25;92670.44;4972644;28;19925;-80
2023/03/20 06:35:04;;;;;;;;;;;;;;;12.06;80.40;92673.38;4970464;28;19922;-80
2023/03/20 06:37:31;;;;;;;;;;;;;;;12.40;79.00;92668.84;4970096;28;19922;-78
2023/03/20 06:40:05;;;;;;;;;;;;;;;12.66;76.38;92669.91;4990380;28;19918;-79
2023/03/20 06:42:32;;;;;;;;;;;;;;;13.09;73.39;92666.13;4968542;28;19925;-80
2023/03/20 06:44:58;;;;;;;;;;;;;;;13.23;71.51;92666.06;4972214;28;19922;-81
2023/03/20 06:47:47;;;;;;;;;;;;;;;13.58;70.58;92661.06;4973006;28;20300;-81
2023/03/20 06:50:13;;;;;;;;;;;;;;;14.02;68.14;92670.00;4974823;28;19914;-80
2023/03/20 06:52:39;;;;;;;;;;;;;;;14.35;68.10;92673.09;4972625;28;19914;-81
2023/03/20 06:55:39;;;;;;;;;;;;;;;14.92;65.23;92669.69;4950298;29;19925;-81
2023/03/20 06:58:05;;;;;;;;;;;;;;;15.32;63.24;92667.72;4943024;28;19914;-81
2023/03/20 07:00:31;;;;;;;;;;;;;;;15.50;62.92;92671.13;4969975;28;20466;-81
2023/03/20 07:03:01;;;;;;;;;;;;;;;16.12;59.39;92671.81;4968383;28;20438;-82
2023/03/20 07:05:27;;;;;;;;;;;;;;;16.16;58.88;92662.19;4963527;28;19941;-81
2023/03/20 07:07:53;;;;;;;;;;;;;;;16.68;56.02;92666.47;4970976;28;19969;-81
2023/03/20 07:10:19;;;;;;;;;;;;;;;17.12;53.07;92669.66;4973157;28;19925;-82
2023/03/20 07:12:49;;;;;;;;;;;;;;;18.86;48.70;92668.72;4957808;28;19929;-82
2023/03/20 07:15:15;;;;;;;;;;;;;;;18.69;47.98;92674.25;4972141;28;19914;-80
2023/03/20 07:17:42;;;;;;;;;;;;;;;17.75;47.83;92675.69;4972655;28;19917;-81
2023/03/20 07:20:08;;;;;;;;;;;;;;;17.53;47.81;92676.03;4970716;28;19928;-81
2023/03/20 07:22:34;;;;;;;;;;;;;;;16.28;52.06;92680.00;4966007;28;20017;-81
2023/03/20 07:25:14;;;;;;;;;;;;;;;15.54;53.21;92684.47;4968567;28;19925;-81
2023/03/20 07:27:41;;;;;;;;;;;;;;;14.63;57.07;92680.81;4971730;28;20308;-82
2023/03/20 07:30:07;;;;;;;;;;;;;;;13.83;58.86;92675.50;4972450;28;19924;-82
2023/03/20 07:32:34;;;;;;;;;;;;;;;13.42;60.33;92682.50;4960140;28;20004;-80
2023/03/20 07:35:00;;;;;;;;;;;;;;;12.51;63.45;92685.94;4959989;28;19924;-82
2023/03/20 07:37:27;;;;;;;;;;;;;;;11.71;67.02;92687.09;4977737;28;19918;-82
2023/03/20 07:40:03;;;;;;;;;;;;;;;11.37;68.28;92693.38;4977276;28;19918;-82
2023/03/20 07:42:31;;;;;;;;;;;;;;;11.11;71.36;92685.13;4968870;28;19922;-81
2023/03/20 07:44:59;;;;;;;;;;;;;;;11.31;69.33;92684.84;4968560;28;20384;-81
2023/03/20 07:47:24;;;;;;;;;;;;;;;10.99;71.58;92688.97;4974641;28;19957;-80
2023/03/20 07:49:50;;;;;;;;;;;;;;;10.58;74.18;92689.50;4969185;28;19922;-81
2023/03/20 07:52:16;;;;;;;;;;;;;;;10.50;73.72;92692.72;4975729;28;19925;-81
2023/03/20 07:54:41;;;;;;;;;;;;;;;11.13;71.31;92690.88;4975604;28;19918;-79
2023/03/20 07:57:07;;;;;;;;;;;;;;;11.40;70.85;92690.97;4986668;28;19918;-81
2023/03/20 07:59:32;;;;;;;;;;;;;;;11.41;68.69;92684.66;4978922;28;19924;-81
2023/03/20 08:01:58;;;;;;;;;;;;;;;11.31;69.71;92695.31;4976947;28;19918;-80
2023/03/20 08:04:24;;;;;;;;;;;;;;;10.96;70.10;92694.75;4976515;28;20004;-79
2023/03/20 08:06:50;;;;;;;;;;;;;;;10.53;72.77;92702.63;4979033;28;19996;-78
2023/03/20 08:09:16;;;;;;;;;;;;;;;10.15;75.17;92701.72;4971359;28;20295;-79
2023/03/20 08:11:41;;;;;;;;;;;;;;;9.96;74.74;92693.81;4969391;28;20269;-80
2023/03/20 08:14:07;;;;;;;;;;;;;;;10.43;72.82;92697.53;4973935;28;19925;-79
2023/03/20 08:16:32;;;;;;;;;;;;;;;10.35;73.66;92703.34;4971538;28;19926;-79
2023/03/20 08:19:00;;;;;;;;;;;;;;;10.23;72.65;92700.34;4974357;28;19926;-80
2023/03/20 08:21:29;;;;;;;;;;;;;;;10.31;72.75;92710.19;4978247;28;19964;-80
2023/03/20 08:23:54;;;;;;;;;;;;;;;10.47;72.21;92708.19;4990237;28;19953;-79
2023/03/20 08:26:20;;;;;;;;;;;;;;;10.87;72.74;92712.16;4976676;28;19918;-79
2023/03/20 08:28:46;;;;;;;;;;;;;;;10.96;69.92;92704.44;4976238;28;19917;-80
2023/03/20 08:31:11;;;;;;;;;;;;;;;10.31;73.03;92715.44;4973411;28;19922;-81
2023/03/20 08:33:37;;;;;;;;;;;;;;;10.35;73.27;92713.81;4974597;28;20009;-82
2023/03/20 08:36:02;;;;;;;;;;;;;;;10.52;73.68;92716.00;4975189;28;19922;-80
2023/03/20 08:38:28;;;;;;;;;;;;;;;10.84;71.06;92708.25;4979761;28;19918;-80
2023/03/20 08:40:53;;;;;;;;;;;;;;;10.60;71.63;92718.78;4976489;28;19926;-81
2023/03/20 08:43:19;;;;;;;;;;;;;;;10.73;72.97;92717.31;4976061;28;20006;-79
2023/03/20 08:45:44;;;;;;;;;;;;;;;11.14;72.31;92716.78;4975633;28;19973;-81
2023/03/20 08:48:10;;;;;;;;;;;;;;;11.10;69.24;92709.75;4956488;28;19926;-78
2023/03/20 08:50:36;;;;;;;;;;;;;;;11.11;69.55;92717.34;4974524;28;19914;-79
2023/03/20 08:53:02;;;;;;;;;;;;;;;11.30;69.21;92719.94;4973085;28;19942;-81
2023/03/20 08:55:27;;;;;;;;;;;;;;;11.19;70.18;92718.53;4991976;28;20296;-80
2023/03/20 08:57:56;;;;;;;;;;;;;;;11.04;70.52;92719.53;4977289;28;19918;-80
2023/03/20 09:00:22;;;;;;;;;;;;;;;11.09;70.46;92713.47;4974662;28;19922;-81
2023/03/20 09:02:47;;;;;;;;;;;;;;;11.01;71.14;92720.91;4972846;28;19918;-81
2023/03/20 09:05:13;;;;;;;;;;;;;;;11.11;70.43;92716.56;4976018;28;19914;-79
2023/03/20 09:07:38;;;;;;;;;;;;;;;10.84;72.39;92717.97;4975630;28;20392;-79
2023/03/20 09:10:04;;;;;;;;;;;;;;;10.82;73.10;92722.69;4972233;28;19918;-79
2023/03/20 09:12:32;;;;;;;;;;;;;;;10.44;74.64;92720.00;4976261;28;19949;-80
2023/03/20 09:14:58;;;;;;;;;;;;;;;10.75;74.03;92715.19;4976700;28;20351;-80
2023/03/20 09:17:24;;;;;;;;;;;;;;;10.88;73.73;92703.25;4972914;28;19914;-81
2023/03/20 09:19:49;;;;;;;;;;;;;;;11.10;73.02;92704.53;4970559;28;19928;-80
2023/03/20 09:22:16;;;;;;;;;;;;;;;10.78;74.80;92703.38;4972498;28;20403;-81
2023/03/20 09:24:42;;;;;;;;;;;;;;;10.98;72.76;92697.88;4972202;28;19914;-81
2023/03/20 09:27:08;;;;;;;;;;;;;;;11.17;71.18;92700.50;4956985;28;19925;-80
2023/03/20 09:29:34;;;;;;;;;;;;;;;11.10;70.76;92707.13;4975378;28;19917;-79
2023/03/20 09:31:59;;;;;;;;;;;;;;;11.24;70.43;92710.63;4974202;28;19918;-80
2023/03/20 09:34:25;;;;;;;;;;;;;;;11.26;69.18;92700.66;4964938;28;19918;-79
2023/03/20 09:36:50;;;;;;;;;;;;;;;11.67;69.74;92694.78;4976870;28;20402;-79
2023/03/20 09:39:17;;;;;;;;;;;;;;;11.37;67.80;92698.63;4973293;28;19964;-81
2023/03/20 09:41:46;;;;;;;;;;;;;;;11.26;70.87;92698.03;4969654;28;20258;-81
2023/03/20 09:44:12;;;;;;;;;;;;;;;11.33;69.33;92697.66;4974504;28;19918;-79
2023/03/20 09:46:56;;;;;;;;;;;;;;;11.50;68.79;92705.00;4959874;28;19921;-80
2023/03/20 09:49:39;;;;;;;;;;;;;;;11.55;67.85;92699.66;4973704;28;20009;-80
2023/03/20 09:52:16;;;;;;;;;;;;;;;11.62;68.31;92702.72;4974584;28;20004;-80
2023/03/20 09:54:44;;;;;;;;;;;;;;;11.91;67.67;92699.13;4968484;28;19914;-79
2023/03/20 09:57:16;;;;;;;;;;;;;;;11.76;67.30;92689.66;4974729;28;19921;-80
2023/03/20 09:59:41;;;;;;;;;;;;;;;11.78;67.41;92701.41;4966798;28;19982;-80
2023/03/20 10:02:14;;;;;;;;;;;;;;;11.88;66.17;92703.09;4974867;28;19953;-80
2023/03/20 10:04:41;;;;;;;;;;;;;;;11.66;67.09;92708.94;4974176;28;19914;-80
2023/03/20 10:07:09;;;;;;;;;;;;;;;11.40;68.72;92711.94;4975187;28;19960;-80
2023/03/20 10:09:35;;;;;;;;;;;;;;;11.42;67.49;92707.22;4969735;28;19914;-79
2023/03/20 10:12:26;;;;;;;;;;;;;;;11.24;68.54;92710.63;4991363;28;19981;-79
2023/03/20 10:14:51;;;;;;;;;;;;;;;11.63;68.90;92704.28;4973391;28;19917;-79
2023/03/20 10:17:17;;;;;;;;;;;;;;;11.99;64.87;92703.72;4975976;28;20386;-80
2023/03/20 10:19:44;;;;;;;;;;;;;;;12.22;65.63;92705.38;4975210;28;20424;-80
2023/03/20 10:22:25;;;;;;;;;;;;;;;12.39;64.34;92706.69;4973538;28;19921;-80
2023/03/20 10:25:03;;;;;;;;;;;;;;;12.22;65.66;92708.00;4975885;28;19918;-78
2023/03/20 10:27:32;;;;;;;;;;;;;;;12.39;65.47;92711.94;4973625;28;19918;-78
2023/03/20 10:30:24;;;;;;;;;;;;;;;12.60;63.73;92713.09;4976151;28;19913;-79
2023/03/20 10:32:59;;;;;;;;;;;;;;;12.00;64.67;92707.88;4972884;28;20038;-79
2023/03/20 10:35:24;;;;;;;;;;;;;;;11.79;65.48;92715.28;4974525;28;19964;-79
2023/03/20 10:37:50;;;;;;;;;;;;;;;11.93;67.56;92715.34;4974996;28;20655;-79
2023/03/20 10:40:28;;;;;;;;;;;;;;;12.14;65.69;92710.56;4976698;28;20396;-80
2023/03/20 10:42:56;;;;;;;;;;;;;;;11.99;64.91;92716.81;4965382;28;19930;-78
2023/03/20 10:45:29;;;;;;;;;;;;;;;12.37;62.30;92711.44;4969179;28;19914;-79
2023/03/20 10:47:56;;;;;;;;;;;;;;;12.43;62.89;92707.66;4972154;28;20450;-79
2023/03/20 10:50:42;;;;;;;;;;;;;;;12.59;62.54;92695.00;4973616;28;19914;-78
2023/03/20 10:53:09;;;;;;;;;;;;;;;12.53;62.42;92696.94;4971518;28;20272;-78
2023/03/20 10:55:37;;;;;;;;;;;;;;;12.56;62.48;92692.94;4970391;28;19921;-79
2023/03/20 10:58:09;;;;;;;;;;;;;;;12.64;59.97;92697.53;4969521;28;20356;-79
2023/03/20 11:00:36;;;;;;;;;;;;;;;12.87;61.21;92695.75;4972252;28;19957;-79
2023/03/20 11:03:03;;;;;;;;;;;;;;;12.98;60.62;92685.81;4977098;28;20012;-78
2023/03/20 11:05:33;;;;;;;;;;;;;;;12.84;60.86;92697.13;4973986;28;19982;-80
2023/03/20 11:08:01;;;;;;;;;;;;;;;13.42;56.29;92681.69;4967555;28;19914;-80
2023/03/20 11:10:27;;;;;;;;;;;;;;;13.55;58.09;92683.50;4973092;28;19914;-78
2023/03/20 11:12:52;;;;;;;;;;;;;;;13.04;58.78;92680.16;4968898;28;19925;-79
2023/03/20 11:15:21;;;;;;;;;;;;;;;12.59;60.70;92685.28;4972264;28;19922;-79
2023/03/20 11:17:50;;;;;;;;;;;;;;;13.10;61.09;92672.91;4975922;28;20146;-80
2023/03/20 11:20:15;;;;;;;;;;;;;;;13.11;59.12;92685.00;4975853;28;19921;-80
2023/03/20 11:22:41;;;;;;;;;;;;;;;13.19;57.57;92676.38;4973872;28;19930;-79
2023/03/20 11:25:21;;;;;;;;;;;;;;;13.41;59.70;92675.66;4974415;28;19918;-80
2023/03/20 11:27:46;;;;;;;;;;;;;;;13.24;59.60;92672.88;4972150;28;19918;-79
2023/03/20 11:30:16;;;;;;;;;;;;;;;13.31;59.68;92674.06;4988977;28;19917;-79
2023/03/20 11:32:50;;;;;;;;;;;;;;;13.37;57.98;92679.19;4974043;28;20392;-79
2023/03/20 11:35:27;;;;;;;;;;;;;;;13.19;58.79;92660.63;4972946;28;19937;-77
2023/03/20 11:37:54;;;;;;;;;;;;;;;13.34;59.10;92664.78;4967588;28;20261;-78
2023/03/20 11:40:24;;;;;;;;;;;;;;;13.65;59.74;92661.44;4969507;28;19922;-78
2023/03/20 11:43:02;;;;;;;;;;;;;;;13.65;58.68;92656.97;4970342;28;19925;-81
2023/03/20 11:45:48;;;;;;;;;;;;;;;13.60;58.89;92657.09;4968865;28;19936;-79
2023/03/20 11:48:18;;;;;;;;;;;;;;;13.76;57.03;92654.88;4968244;28;19914;-79
2023/03/20 11:51:02;;;;;;;;;;;;;;;13.68;59.40;92658.22;4966649;28;19978;-79
2023/03/20 11:53:34;;;;;;;;;;;;;;;13.51;57.72;92654.41;4977422;28;19984;-79
2023/03/20 11:56:07;;;;;;;;;;;;;;;13.53;57.53;92652.25;4986817;28;19973;-80
2023/03/20 11:58:35;;;;;;;;;;;;;;;13.41;59.38;92649.38;4958323;28;19914;-81
2023/03/20 12:01:00;;;;;;;;;;;;;;;13.41;57.33;92641.47;4966461;28;19914;-81
2023/03/20 12:03:32;;;;;;;;;;;;;;;13.56;58.38;92645.63;4975312;28;20265;-80
2023/03/20 12:06:00;;;;;;;;;;;;;;;13.70;59.08;92640.28;4975406;28;19914;-80
2023/03/20 12:08:29;;;;;;;;;;;;;;;13.75;57.15;92640.13;4972010;28;20012;-81
2023/03/20 12:10:58;;;;;;;;;;;;;;;13.74;57.30;92642.00;4971689;28;20273;-80
2023/03/20 12:13:26;;;;;;;;;;;;;;;13.45;55.61;92631.94;4986090;28;19914;-81
2023/03/20 12:15:54;;;;;;;;;;;;;;;13.60;58.86;92632.63;4988868;28;19915;-80
2023/03/20 12:18:25;;;;;;;;;;;;;;;13.71;58.71;92623.41;4973580;28;20025;-79
2023/03/20 12:21:09;;;;;;;;;;;;;;;13.77;57.49;92619.56;4976371;28;19945;-80
2023/03/20 12:23:46;;;;;;;;;;;;;;;13.74;56.48;92613.06;4977166;28;20008;-80
2023/03/20 12:26:14;;;;;;;;;;;;;;;13.67;57.12;92623.25;4994895;28;20016;-80
2023/03/20 12:28:46;;;;;;;;;;;;;;;13.92;56.46;92624.44;4979548;28;20303;-80
2023/03/20 12:31:24;;;;;;;;;;;;;;;14.00;54.75;92624.78;4978052;28;19948;-80
2023/03/20 12:34:10;;;;;;;;;;;;;;;13.78;56.59;92618.50;4978387;28;20369;-78
2023/03/20 12:36:38;;;;;;;;;;;;;;;13.78;57.39;92602.72;4979566;28;19944;-80
2023/03/20 12:39:05;;;;;;;;;;;;;;;13.97;57.25;92597.22;4979549;28;19945;-80
2023/03/20 12:41:37;;;;;;;;;;;;;;;14.01;57.04;92597.41;4978177;28;20109;-80
2023/03/20 12:44:02;;;;;;;;;;;;;;;14.00;57.69;92606.38;4976903;28;19945;-80
2023/03/20 12:46:40;;;;;;;;;;;;;;;13.78;57.88;92601.94;4971247;28;20346;-78
2023/03/20 12:49:19;;;;;;;;;;;;;;;13.80;57.57;92603.16;4976049;28;19948;-79
2023/03/20 12:51:50;;;;;;;;;;;;;;;13.86;57.43;92599.34;4980092;28;20500;-80
2023/03/20 12:54:19;;;;;;;;;;;;;;;13.82;58.06;92606.28;4978907;28;19961;-79
2023/03/20 12:57:04;;;;;;;;;;;;;;;13.99;57.72;92602.97;4976831;28;19918;-80
2023/03/20 12:59:38;;;;;;;;;;;;;;;14.03;58.36;92597.88;4993953;28;19918;-80
2023/03/20 13:02:25;;;;;;;;;;;;;;;14.24;57.61;92596.22;4977058;28;19921;-80
2023/03/20 13:04:56;;;;;;;;;;;;;;;13.97;57.52;92605.13;4978139;28;20319;-80
2023/03/20 13:07:31;;;;;;;;;;;;;;;13.69;58.03;92601.88;4971020;28;20284;-79